Abbottabad Weather



Abbottabad's Current Weather

Temprature 32.78o scattered clouds

scattered clouds

Rain: 0 %

Min Temprature32.78o
Max Temprature32.78o
Humidity35
Wind Speed1.79 m/h
Sun Rise05:11:12
Sun Set18:56:05
Current Time: 08-May-2021 14:23:49
Lat/Lon: 34.1469, 73.2145




Abbottabad's Geo Location



Abbottabad's Weather Forecast

Time Overall Temp Min Temp Max Temp Humidity Wind Speed Rain
08-May-2021 (Sat)
17:00:00 light rain 29.920 24.210 29.920 38 1.57 m/h 11 %
20:00:00 light rain 22.470 17.310 22.470 59 4.46 m/h 27 %
23:00:00 scattered clouds 16.900 16.900 16.900 64 3.88 m/h 0 %
09-May-2021 (Sun)
02:00:00 overcast clouds 17.090 17.090 17.090 57 3.35 m/h 0 %
05:00:00 overcast clouds 17.130 17.130 17.130 55 2.55 m/h 0 %
08:00:00 light rain 22.690 22.690 22.690 45 0.42 m/h 40 %
11:00:00 light rain 26.600 26.600 26.600 35 1.72 m/h 29 %
14:00:00 scattered clouds 28.290 28.290 28.290 30 2.61 m/h 0 %
17:00:00 scattered clouds 27.650 27.650 27.650 29 1.14 m/h 0 %
20:00:00 broken clouds 21.830 21.830 21.830 44 1.92 m/h 0 %
23:00:00 overcast clouds 20.230 20.230 20.230 52 2.99 m/h 0 %
10-May-2021 (Mon)
02:00:00 overcast clouds 18.330 18.330 18.330 57 2.63 m/h 0 %
05:00:00 light rain 17.540 17.540 17.540 58 1.72 m/h 10 %
08:00:00 overcast clouds 23.150 23.150 23.150 45 1.63 m/h 0 %
11:00:00 overcast clouds 27.590 27.590 27.590 33 1.79 m/h 0 %
14:00:00 overcast clouds 28.870 28.870 28.870 30 2.94 m/h 0 %
17:00:00 broken clouds 28.310 28.310 28.310 31 1.72 m/h 0 %
20:00:00 clear sky 22.420 22.420 22.420 45 1.43 m/h 0 %
23:00:00 few clouds 20.510 20.510 20.510 53 3.16 m/h 0 %
11-May-2021 (Tue)
02:00:00 broken clouds 19.390 19.390 19.390 57 3.1 m/h 0 %
05:00:00 overcast clouds 18.590 18.590 18.590 57 2.54 m/h 0 %
08:00:00 light rain 23.990 23.990 23.990 45 1.78 m/h 13 %
11:00:00 broken clouds 29.350 29.350 29.350 31 1.9 m/h 0 %
14:00:00 few clouds 30.440 30.440 30.440 27 5.25 m/h 0 %
17:00:00 light rain 21.890 21.890 21.890 52 4.73 m/h 24 %
20:00:00 overcast clouds 18.190 18.190 18.190 56 5.1 m/h 0 %
23:00:00 light rain 17.060 17.060 17.060 62 2.75 m/h 58 %
12-May-2021 (Wed)
02:00:00 light rain 16.570 16.570 16.570 75 3.18 m/h 248 %
05:00:00 light rain 16.280 16.280 16.280 70 2.7 m/h 15 %
08:00:00 overcast clouds 20.640 20.640 20.640 55 2.02 m/h 0 %
11:00:00 overcast clouds 24.000 24.000 24.000 43 1.78 m/h 0 %
14:00:00 light rain 23.780 23.780 23.780 45 1.15 m/h 38 %
17:00:00 light rain 23.210 23.210 23.210 48 2.85 m/h 28 %
20:00:00 light rain 17.970 17.970 17.970 73 1.48 m/h 191 %
23:00:00 moderate rain 16.980 16.980 16.980 79 2.78 m/h 430 %
13-May-2021 (Thu)
02:00:00 moderate rain 14.570 14.570 14.570 89 4.27 m/h 621 %
05:00:00 light rain 14.790 14.790 14.790 85 1.38 m/h 232 %
08:00:00 moderate rain 14.390 14.390 14.390 90 2.88 m/h 578 %
11:00:00 moderate rain 17.160 17.160 17.160 75 0.68 m/h 384 %
14:00:00 moderate rain 19.180 19.180 19.180 66 0.75 m/h 419 %


Abbottabad's Tourist Spots

Historical Places in Abbottabad

Famous Cities (60)